Time;durP1;ratioP1;P1;durP2;ratioP2;P2;SDS_P1;SDS_P2;PMS_P1;PMS_P2;Temp;Humidity;BMP_temperature;BMP_pressure;BME280_temperature;BME280_humidity;BME280_pressure;Samples;Min_cycle;Max_cycle;Signal;HPM_P1;HPM_P2
2022/01/22 00:01:13;;;;;;;;;91.25;80.50;;;;;;;;5010581;28;51082;-46
2022/01/22 00:04:02;;;;;;;;;97.50;89.25;;;;;;;;5019335;28;51256;-46
2022/01/22 00:07:06;;;;;;;;;99.75;85.75;;;;;;;;5019423;28;51042;-45
2022/01/22 00:09:59;;;;;;;;;101.50;87.75;;;;;;;;5020681;28;51500;-46
2022/01/22 00:15:48;;;;;;;;;107.75;94.50;;;;;;;;5020001;28;51199;-46
2022/01/22 00:18:36;;;;;;;;;105.50;94.50;;;;;;;;5018739;28;52467;-47
2022/01/22 00:21:36;;;;;;;;;104.25;89.25;;;;;;;;5019451;28;51097;-46
2022/01/22 00:24:22;;;;;;;;;108.50;93.00;;;;;;;;5019679;28;51404;-45
2022/01/22 00:27:06;;;;;;;;;105.00;92.75;;;;;;;;5005546;28;51190;-46
2022/01/22 00:29:57;;;;;;;;;105.25;89.00;;;;;;;;5019420;28;51186;-47
2022/01/22 00:32:52;;;;;;;;;98.50;90.00;;;;;;;;5018242;28;51330;-47
2022/01/22 00:35:36;;;;;;;;;109.50;93.25;;;;;;;;5019126;28;50999;-46
2022/01/22 00:38:21;;;;;;;;;122.00;108.25;;;;;;;;5021243;28;51062;-45
2022/01/22 00:41:19;;;;;;;;;110.25;98.75;;;;;;;;5016032;28;51160;-46
2022/01/22 00:44:28;;;;;;;;;115.25;97.00;;;;;;;;5018513;28;51392;-47
2022/01/22 00:47:33;;;;;;;;;124.75;102.00;;;;;;;;5022096;28;51184;-44
2022/01/22 00:50:43;;;;;;;;;115.00;99.25;;;;;;;;5019682;28;51108;-45
2022/01/22 00:53:32;;;;;;;;;120.00;102.00;;;;;;;;5021224;28;51170;-44
2022/01/22 00:56:38;;;;;;;;;129.50;113.25;;;;;;;;5022555;28;51129;-49
2022/01/22 00:59:23;;;;;;;;;131.50;113.00;;;;;;;;5020633;28;51085;-46
2022/01/22 01:02:08;;;;;;;;;144.25;129.00;;;;;;;;5022087;28;52535;-44
2022/01/22 01:05:05;;;;;;;;;135.75;121.75;;;;;;;;5020022;28;51095;-45
2022/01/22 01:07:50;;;;;;;;;154.50;137.00;;;;;;;;5019528;28;51070;-47
2022/01/22 01:10:54;;;;;;;;;178.00;154.25;;;;;;;;5022046;28;51406;-45
2022/01/22 01:13:43;;;;;;;;;173.50;157.00;;;;;;;;5021376;28;51146;-46
2022/01/22 01:34:54;;;;;;;;;171.75;146.00;;;;;;;;5021850;28;50968;-44
2022/01/22 01:37:39;;;;;;;;;194.75;161.75;;;;;;;;5020474;28;51537;-46
2022/01/22 01:40:28;;;;;;;;;190.00;168.50;;;;;;;;5018873;28;51113;-49
2022/01/22 01:43:35;;;;;;;;;191.00;164.75;;;;;;;;5019337;28;51237;-45
2022/01/22 01:46:20;;;;;;;;;162.75;144.50;;;;;;;;5017469;28;51081;-45
2022/01/22 01:49:26;;;;;;;;;183.50;161.25;;;;;;;;5020061;28;51522;-47
2022/01/22 01:52:20;;;;;;;;;165.25;145.50;;;;;;;;5006425;28;51332;-49
2022/01/22 01:55:16;;;;;;;;;161.75;140.25;;;;;;;;5019347;28;51148;-46
2022/01/22 01:58:01;;;;;;;;;158.25;139.50;;;;;;;;5008822;28;51135;-47
2022/01/22 02:00:53;;;;;;;;;175.75;157.75;;;;;;;;5022908;28;51037;-44
2022/01/22 02:03:46;;;;;;;;;159.75;137.00;;;;;;;;5022142;28;51086;-45
2022/01/22 02:06:51;;;;;;;;;165.25;145.25;;;;;;;;5018781;28;51081;-46
2022/01/22 02:09:58;;;;;;;;;174.00;151.75;;;;;;;;5024309;28;51261;-46
2022/01/22 02:24:48;;;;;;;;;167.50;150.75;;;;;;;;5022020;28;51128;-46
2022/01/22 02:27:34;;;;;;;;;168.75;149.75;;;;;;;;5022380;28;51122;-46
2022/01/22 02:30:29;;;;;;;;;182.00;155.25;;;;;;;;5025273;28;51102;-44
2022/01/22 02:33:33;;;;;;;;;174.00;149.00;;;;;;;;5023126;28;51105;-48
2022/01/22 02:40:00;;;;;;;;;175.50;147.00;;;;;;;;5023135;28;51177;-44
2022/01/22 02:42:11;;;;;;;;;180.75;164.50;;;;;;;;5016902;28;51043;-48
2022/01/22 02:44:56;;;;;;;;;170.75;149.25;;;;;;;;5022487;28;51228;-44
2022/01/22 02:47:40;;;;;;;;;191.50;165.50;;;;;;;;5024843;28;51117;-47
2022/01/22 02:50:29;;;;;;;;;174.00;157.50;;;;;;;;5018688;28;51103;-45
2022/01/22 02:53:14;;;;;;;;;166.50;153.75;;;;;;;;5024244;28;51369;-47
2022/01/22 02:56:02;;;;;;;;;171.25;154.75;;;;;;;;5023336;28;52637;-46
2022/01/22 02:59:05;;;;;;;;;159.25;146.25;;;;;;;;5024439;28;51244;-47
2022/01/22 03:01:50;;;;;;;;;167.00;150.00;;;;;;;;5022394;28;51413;-45
2022/01/22 03:04:40;;;;;;;;;158.50;141.25;;;;;;;;5022277;28;51637;-45
2022/01/22 03:07:29;;;;;;;;;171.00;149.00;;;;;;;;5021745;28;51640;-47
2022/01/22 03:10:16;;;;;;;;;169.25;153.00;;;;;;;;5021298;28;51178;-46
2022/01/22 03:19:29;;;;;;;;;168.50;146.50;;;;;;;;5024443;28;51071;-45
2022/01/22 03:22:43;;;;;;;;;157.25;145.50;;;;;;;;5021706;28;51546;-44
2022/01/22 03:28:40;;;;;;;;;173.50;153.75;;;;;;;;5022905;28;51497;-44
2022/01/22 03:31:31;;;;;;;;;184.75;166.25;;;;;;;;5021295;28;51097;-45
2022/01/22 03:34:27;;;;;;;;;177.75;159.00;;;;;;;;5019261;28;51070;-45
2022/01/22 03:37:34;;;;;;;;;156.75;144.50;;;;;;;;5023861;28;51177;-45
2022/01/22 03:40:21;;;;;;;;;164.75;142.00;;;;;;;;5021642;28;51167;-44
2022/01/22 03:43:07;;;;;;;;;181.25;161.75;;;;;;;;5020315;28;51079;-45
2022/01/22 03:46:04;;;;;;;;;185.75;162.00;;;;;;;;5020848;28;51174;-44
2022/01/22 03:48:49;;;;;;;;;179.00;161.75;;;;;;;;5020719;28;51183;-45
2022/01/22 03:51:37;;;;;;;;;183.75;169.75;;;;;;;;5021964;28;51130;-45
2022/01/22 03:54:21;;;;;;;;;197.00;173.00;;;;;;;;5023816;28;51416;-46
2022/01/22 03:57:22;;;;;;;;;174.75;152.75;;;;;;;;5021347;28;51375;-46
2022/01/22 04:00:08;;;;;;;;;180.75;157.00;;;;;;;;5024367;28;51101;-50
2022/01/22 04:09:06;;;;;;;;;181.25;170.75;;;;;;;;5020213;28;51168;-45
2022/01/22 04:11:58;;;;;;;;;182.50;157.50;;;;;;;;5020589;28;51149;-46
2022/01/22 04:14:55;;;;;;;;;195.50;168.50;;;;;;;;5008347;28;51442;-52
2022/01/22 04:27:07;;;;;;;;;186.50;164.25;;;;;;;;5020411;28;51532;-45
2022/01/22 04:29:58;;;;;;;;;202.00;179.75;;;;;;;;5020194;28;51011;-45
2022/01/22 04:32:46;;;;;;;;;202.25;179.50;;;;;;;;5019722;28;51193;-44
2022/01/22 04:35:41;;;;;;;;;220.75;192.75;;;;;;;;5018730;28;51019;-47
2022/01/22 04:38:27;;;;;;;;;217.25;197.75;;;;;;;;5019695;28;51176;-44
2022/01/22 04:41:11;;;;;;;;;213.50;187.75;;;;;;;;5005179;28;52212;-47
2022/01/22 04:44:19;;;;;;;;;224.00;193.00;;;;;;;;5021466;28;51217;-46
2022/01/22 04:55:59;;;;;;;;;228.25;202.50;;;;;;;;5020007;28;51105;-44
2022/01/22 04:59:03;;;;;;;;;220.75;195.25;;;;;;;;5002613;28;51524;-45
2022/01/22 05:02:02;;;;;;;;;221.00;200.75;;;;;;;;5016996;28;51180;-47
2022/01/22 05:04:54;;;;;;;;;221.50;191.00;;;;;;;;5017818;28;51067;-47
2022/01/22 05:07:41;;;;;;;;;215.00;185.00;;;;;;;;5017980;28;51399;-46
2022/01/22 05:10:34;;;;;;;;;224.00;197.25;;;;;;;;5018340;28;51135;-47
2022/01/22 05:13:40;;;;;;;;;223.75;199.75;;;;;;;;5018614;28;51224;-47
2022/01/22 05:16:29;;;;;;;;;222.50;191.75;;;;;;;;5021249;28;51055;-48
2022/01/22 05:19:30;;;;;;;;;213.00;190.00;;;;;;;;5018940;28;51088;-46
2022/01/22 05:25:50;;;;;;;;;215.50;196.25;;;;;;;;4983985;28;51174;-45
2022/01/22 05:38:18;;;;;;;;;219.50;190.00;;;;;;;;5012208;28;51372;-47
2022/01/22 05:41:23;;;;;;;;;213.50;191.25;;;;;;;;5019848;28;52626;-46
2022/01/22 05:44:08;;;;;;;;;214.25;183.25;;;;;;;;5008267;28;51190;-47
2022/01/22 05:46:57;;;;;;;;;214.25;188.25;;;;;;;;5023241;28;51504;-46
2022/01/22 05:49:48;;;;;;;;;217.50;185.25;;;;;;;;5022315;28;51529;-45
2022/01/22 05:52:55;;;;;;;;;212.75;185.75;;;;;;;;5022559;28;51150;-46
2022/01/22 06:01:50;;;;;;;;;222.00;184.00;;;;;;;;5022354;28;51130;-47
2022/01/22 06:04:42;;;;;;;;;215.25;191.00;;;;;;;;5022148;28;51050;-43
2022/01/22 06:07:38;;;;;;;;;195.75;178.25;;;;;;;;5022954;28;51095;-47
2022/01/22 06:10:28;;;;;;;;;215.25;189.75;;;;;;;;5024007;28;51146;-45
2022/01/22 06:13:18;;;;;;;;;230.75;194.50;;;;;;;;5021956;28;51570;-43
2022/01/22 06:16:06;;;;;;;;;206.50;181.25;;;;;;;;5022216;28;50991;-45
2022/01/22 06:19:07;;;;;;;;;224.75;196.00;;;;;;;;5023479;28;51188;-46
2022/01/22 06:21:51;;;;;;;;;212.00;187.00;;;;;;;;5020283;28;51156;-46
2022/01/22 06:24:57;;;;;;;;;203.25;178.75;;;;;;;;5021709;28;51305;-46
2022/01/22 06:27:53;;;;;;;;;201.25;179.25;;;;;;;;5024562;28;51165;-46
2022/01/22 06:30:41;;;;;;;;;216.75;192.50;;;;;;;;5020795;28;51133;-44
2022/01/22 06:33:36;;;;;;;;;199.50;180.50;;;;;;;;5023238;28;51215;-55
2022/01/22 06:36:20;;;;;;;;;193.25;177.50;;;;;;;;5024712;28;51369;-50
2022/01/22 06:39:16;;;;;;;;;219.25;182.25;;;;;;;;5021712;28;51152;-52
2022/01/22 06:42:29;;;;;;;;;214.00;179.75;;;;;;;;5021169;28;51114;-50
2022/01/22 06:45:19;;;;;;;;;209.50;189.50;;;;;;;;5021576;28;51153;-52
2022/01/22 06:48:05;;;;;;;;;193.25;167.25;;;;;;;;5021778;28;51066;-53
2022/01/22 06:50:52;;;;;;;;;201.25;172.00;;;;;;;;5022663;28;51138;-54
2022/01/22 06:53:58;;;;;;;;;226.50;197.25;;;;;;;;5025084;28;51245;-50
2022/01/22 06:56:47;;;;;;;;;205.00;172.25;;;;;;;;5021120;28;51123;-51
2022/01/22 06:59:34;;;;;;;;;219.25;194.25;;;;;;;;5021659;28;51436;-56
2022/01/22 07:02:23;;;;;;;;;197.25;182.00;;;;;;;;5021404;28;51130;-52
2022/01/22 07:05:22;;;;;;;;;215.50;192.25;;;;;;;;5022640;28;51149;-51
2022/01/22 07:08:06;;;;;;;;;193.25;170.75;;;;;;;;5021236;28;51070;-56
2022/01/22 07:10:51;;;;;;;;;207.25;177.25;;;;;;;;5020980;28;51123;-52
2022/01/22 07:13:39;;;;;;;;;214.75;189.75;;;;;;;;5021773;28;51470;-51
2022/01/22 07:16:34;;;;;;;;;192.50;176.50;;;;;;;;5024322;28;51110;-50
2022/01/22 07:19:19;;;;;;;;;209.25;190.00;;;;;;;;5024586;28;51353;-52
2022/01/22 07:22:32;;;;;;;;;206.25;175.00;;;;;;;;5024857;28;51050;-51
2022/01/22 07:25:11;;;;;;;;;218.75;190.50;;;;;;;;5015532;28;51082;-48
2022/01/22 07:28:08;;;;;;;;;215.00;183.75;;;;;;;;5021414;28;51801;-50
2022/01/22 07:31:09;;;;;;;;;197.50;175.25;;;;;;;;5022389;28;51532;-53
2022/01/22 07:33:55;;;;;;;;;193.75;168.25;;;;;;;;5022502;28;51128;-47
2022/01/22 07:36:41;;;;;;;;;210.50;179.75;;;;;;;;5025011;28;51062;-53
2022/01/22 07:39:36;;;;;;;;;214.25;184.00;;;;;;;;5021978;28;50991;-49
2022/01/22 07:42:23;;;;;;;;;189.50;173.75;;;;;;;;5022032;28;51023;-46
2022/01/22 07:45:13;;;;;;;;;188.50;176.00;;;;;;;;5005503;28;51526;-48
2022/01/22 07:47:57;;;;;;;;;215.00;188.75;;;;;;;;5020408;28;51209;-49
2022/01/22 07:50:52;;;;;;;;;195.00;173.75;;;;;;;;5024191;28;51498;-49
2022/01/22 07:53:39;;;;;;;;;204.25;178.25;;;;;;;;5017112;28;51354;-48
2022/01/22 07:56:27;;;;;;;;;195.00;168.50;;;;;;;;5021282;28;51070;-53
2022/01/22 07:59:14;;;;;;;;;174.25;152.25;;;;;;;;5018864;28;51274;-49
2022/01/22 08:02:03;;;;;;;;;210.25;183.25;;;;;;;;5019793;28;51094;-50
2022/01/22 08:04:55;;;;;;;;;200.50;180.00;;;;;;;;5019599;28;51930;-50
2022/01/22 08:07:47;;;;;;;;;204.25;182.50;;;;;;;;5020074;28;51559;-46
2022/01/22 08:10:53;;;;;;;;;191.50;174.50;;;;;;;;5019399;28;51632;-47
2022/01/22 08:13:40;;;;;;;;;202.75;169.00;;;;;;;;5019258;28;51187;-49
2022/01/22 08:16:46;;;;;;;;;205.25;180.00;;;;;;;;5019567;28;51156;-51
2022/01/22 08:19:31;;;;;;;;;198.25;167.25;;;;;;;;5019557;28;51193;-51
2022/01/22 08:22:19;;;;;;;;;176.00;162.00;;;;;;;;5018363;28;51538;-50
2022/01/22 08:25:04;;;;;;;;;197.50;174.75;;;;;;;;5019537;28;51149;-51
2022/01/22 08:30:54;;;;;;;;;196.25;173.25;;;;;;;;5001880;28;51033;-49
2022/01/22 08:37:07;;;;;;;;;194.75;171.50;;;;;;;;5014360;28;51140;-49
2022/01/22 08:39:52;;;;;;;;;183.75;163.00;;;;;;;;5019283;28;51117;-47
2022/01/22 08:42:39;;;;;;;;;194.75;174.25;;;;;;;;5019102;28;51103;-50
2022/01/22 08:45:36;;;;;;;;;175.50;167.50;;;;;;;;5019216;28;51321;-46
2022/01/22 08:48:27;;;;;;;;;186.00;166.00;;;;;;;;5019269;28;51450;-47
2022/01/22 08:51:12;;;;;;;;;197.75;175.75;;;;;;;;5019833;28;51199;-45
2022/01/22 08:54:03;;;;;;;;;180.25;163.00;;;;;;;;5022481;28;51505;-50
2022/01/22 08:56:47;;;;;;;;;197.50;180.75;;;;;;;;5004917;28;51259;-49
2022/01/22 08:59:32;;;;;;;;;165.25;148.25;;;;;;;;5019108;28;51003;-51
2022/01/22 09:02:16;;;;;;;;;169.75;153.75;;;;;;;;5018815;28;51192;-54
2022/01/22 09:05:01;;;;;;;;;210.25;180.25;;;;;;;;5022347;28;51214;-46
2022/01/22 09:07:55;;;;;;;;;199.50;179.25;;;;;;;;5022364;28;51162;-51
2022/01/22 09:10:41;;;;;;;;;206.50;178.00;;;;;;;;5021350;28;51146;-53
2022/01/22 09:13:29;;;;;;;;;194.00;172.00;;;;;;;;5019945;28;51055;-53
2022/01/22 09:16:13;;;;;;;;;177.25;152.25;;;;;;;;5014023;28;51150;-53
2022/01/22 09:19:06;;;;;;;;;193.00;172.75;;;;;;;;5024010;28;51101;-52
2022/01/22 09:21:51;;;;;;;;;195.00;171.75;;;;;;;;5023705;28;51184;-46
2022/01/22 09:24:42;;;;;;;;;161.75;146.00;;;;;;;;5018728;28;51113;-46
2022/01/22 09:27:56;;;;;;;;;185.75;173.00;;;;;;;;5021192;28;51189;-51
2022/01/22 09:30:46;;;;;;;;;186.00;163.75;;;;;;;;5018239;28;51157;-51
2022/01/22 09:33:33;;;;;;;;;181.50;156.25;;;;;;;;5004116;28;51611;-46
2022/01/22 09:36:18;;;;;;;;;192.00;172.00;;;;;;;;5019177;28;51103;-50
2022/01/22 09:39:13;;;;;;;;;154.75;143.50;;;;;;;;5019694;28;51098;-52
2022/01/22 09:42:24;;;;;;;;;152.75;133.25;;;;;;;;5019406;28;51139;-53
2022/01/22 09:45:15;;;;;;;;;158.75;139.00;;;;;;;;5006492;28;51642;-48
2022/01/22 09:48:01;;;;;;;;;149.75;142.75;;;;;;;;5008945;28;51227;-46
2022/01/22 09:50:46;;;;;;;;;165.50;145.25;;;;;;;;5011246;28;51212;-51
2022/01/22 09:53:30;;;;;;;;;176.00;156.00;;;;;;;;5016372;28;51366;-50
2022/01/22 09:56:20;;;;;;;;;156.00;139.50;;;;;;;;5016653;28;51206;-45
2022/01/22 09:59:11;;;;;;;;;152.75;136.50;;;;;;;;5016783;28;51146;-53
2022/01/22 10:02:26;;;;;;;;;149.50;138.25;;;;;;;;5014150;28;51109;-49
2022/01/22 10:05:28;;;;;;;;;163.75;144.50;;;;;;;;5010803;28;51064;-50
2022/01/22 10:08:30;;;;;;;;;140.25;124.25;;;;;;;;5014083;28;51054;-52
2022/01/22 10:11:21;;;;;;;;;141.75;115.75;;;;;;;;5013208;28;51138;-50
2022/01/22 10:14:09;;;;;;;;;147.00;132.00;;;;;;;;5017735;28;51541;-48
2022/01/22 10:16:55;;;;;;;;;114.50;106.00;;;;;;;;5016029;28;51161;-47
2022/01/22 10:19:45;;;;;;;;;140.75;124.75;;;;;;;;5019880;28;51113;-48
2022/01/22 10:22:44;;;;;;;;;126.75;111.50;;;;;;;;5021920;28;51182;-50
2022/01/22 10:25:54;;;;;;;;;151.00;128.75;;;;;;;;5026184;28;51196;-50
2022/01/22 10:28:40;;;;;;;;;118.25;102.75;;;;;;;;5018836;28;51133;-47
2022/01/22 10:31:40;;;;;;;;;137.75;119.25;;;;;;;;5021906;28;51734;-45
2022/01/22 10:34:29;;;;;;;;;137.75;124.00;;;;;;;;5024034;28;51061;-53
2022/01/22 10:37:26;;;;;;;;;138.75;120.25;;;;;;;;5020160;28;51143;-49
2022/01/22 10:40:27;;;;;;;;;123.25;108.75;;;;;;;;5020586;28;51424;-51
2022/01/22 10:43:20;;;;;;;;;118.75;108.25;;;;;;;;5020959;28;51107;-48
2022/01/22 10:46:08;;;;;;;;;146.00;123.00;;;;;;;;5022661;28;51176;-49
2022/01/22 10:48:59;;;;;;;;;130.25;115.50;;;;;;;;5021328;28;51115;-49
2022/01/22 10:52:11;;;;;;;;;127.75;112.75;;;;;;;;5022476;28;51151;-51
2022/01/22 10:55:00;;;;;;;;;115.25;106.00;;;;;;;;5021389;28;51249;-48
2022/01/22 10:58:03;;;;;;;;;120.25;111.75;;;;;;;;5020384;28;51247;-53
2022/01/22 11:00:58;;;;;;;;;115.75;100.00;;;;;;;;5020996;28;51110;-51
2022/01/22 11:03:42;;;;;;;;;119.75;108.50;;;;;;;;5020903;28;51320;-48
2022/01/22 11:06:27;;;;;;;;;125.00;111.00;;;;;;;;5019744;28;51248;-51
2022/01/22 11:09:11;;;;;;;;;121.50;107.75;;;;;;;;5021113;28;51289;-52
2022/01/22 11:11:56;;;;;;;;;110.25;104.25;;;;;;;;4992137;28;51080;-50
2022/01/22 11:14:41;;;;;;;;;127.75;107.25;;;;;;;;5020758;28;51138;-50
2022/01/22 11:17:30;;;;;;;;;127.50;113.25;;;;;;;;5020487;28;51178;-51
2022/01/22 11:20:15;;;;;;;;;127.50;112.75;;;;;;;;5018267;28;51528;-50
2022/01/22 11:23:00;;;;;;;;;118.25;106.75;;;;;;;;5020069;28;51828;-48
2022/01/22 11:25:44;;;;;;;;;123.50;110.25;;;;;;;;5016373;28;51439;-50
2022/01/22 11:28:29;;;;;;;;;125.00;111.00;;;;;;;;5019691;28;51176;-48
2022/01/22 11:31:16;;;;;;;;;111.75;99.00;;;;;;;;5021647;28;51490;-52
2022/01/22 11:34:03;;;;;;;;;112.75;102.50;;;;;;;;5019609;28;51177;-52
2022/01/22 11:36:59;;;;;;;;;118.50;102.25;;;;;;;;5018054;28;51123;-50
2022/01/22 11:39:43;;;;;;;;;119.50;100.75;;;;;;;;5016943;28;51271;-47
2022/01/22 11:42:48;;;;;;;;;116.75;106.75;;;;;;;;5018889;28;51118;-50
2022/01/22 11:45:45;;;;;;;;;120.75;107.75;;;;;;;;5019829;28;51172;-48
2022/01/22 11:48:33;;;;;;;;;103.25;87.00;;;;;;;;5018821;28;51487;-50
2022/01/22 11:51:24;;;;;;;;;110.00;98.00;;;;;;;;5019488;28;51128;-50
2022/01/22 11:54:09;;;;;;;;;99.75;91.00;;;;;;;;5020049;28;51271;-49
2022/01/22 11:56:54;;;;;;;;;111.25;96.50;;;;;;;;5017127;28;51144;-50
2022/01/22 11:59:38;;;;;;;;;106.00;88.25;;;;;;;;5021759;28;51251;-48
2022/01/22 12:02:22;;;;;;;;;111.50;94.75;;;;;;;;5015700;28;52265;-50
2022/01/22 12:05:07;;;;;;;;;104.50;93.50;;;;;;;;5020309;28;51355;-49
2022/01/22 12:07:58;;;;;;;;;95.25;76.00;;;;;;;;5018984;28;51120;-48
2022/01/22 12:14:25;;;;;;;;;104.25;88.00;;;;;;;;5020681;28;51157;-52
2022/01/22 12:16:50;;;;;;;;;99.50;86.75;;;;;;;;5019990;28;51145;-48
2022/01/22 12:19:49;;;;;;;;;99.00;84.75;;;;;;;;5019163;28;51141;-53
2022/01/22 12:22:39;;;;;;;;;81.25;76.25;;;;;;;;5018376;28;51160;-49
2022/01/22 12:25:23;;;;;;;;;85.75;75.75;;;;;;;;5018254;28;51300;-53
2022/01/22 12:28:08;;;;;;;;;82.25;71.25;;;;;;;;5018215;28;51036;-49
2022/01/22 12:31:00;;;;;;;;;84.25;77.25;;;;;;;;5018238;28;51475;-47
2022/01/22 12:33:49;;;;;;;;;86.25;75.75;;;;;;;;5018549;28;51130;-47
2022/01/22 12:36:39;;;;;;;;;82.75;72.75;;;;;;;;5019397;28;51250;-48
2022/01/22 12:39:28;;;;;;;;;89.50;73.50;;;;;;;;5016765;28;51407;-51
2022/01/22 12:42:22;;;;;;;;;76.00;66.00;;;;;;;;5018125;28;51185;-48
2022/01/22 12:45:07;;;;;;;;;77.25;64.50;;;;;;;;5019927;28;51593;-50
2022/01/22 12:47:52;;;;;;;;;73.25;60.75;;;;;;;;5020736;28;51159;-51
2022/01/22 12:50:36;;;;;;;;;77.75;66.50;;;;;;;;5017081;28;51317;-46
2022/01/22 12:53:22;;;;;;;;;67.50;49.25;;;;;;;;5020511;28;51056;-52
2022/01/22 12:58:51;;;;;;;;;85.75;69.00;;;;;;;;5019005;28;51046;-48
2022/01/22 13:01:37;;;;;;;;;77.50;62.25;;;;;;;;5018480;28;51047;-46
2022/01/22 13:04:21;;;;;;;;;78.00;65.75;;;;;;;;5017936;28;51128;-48
2022/01/22 13:07:12;;;;;;;;;84.75;70.00;;;;;;;;5020944;28;51200;-51
2022/01/22 13:10:05;;;;;;;;;79.50;65.75;;;;;;;;5015962;28;51557;-51
2022/01/22 13:12:52;;;;;;;;;80.25;69.25;;;;;;;;5015441;28;51257;-48
2022/01/22 13:15:37;;;;;;;;;79.00;67.25;;;;;;;;5017574;28;51201;-47
2022/01/22 13:18:21;;;;;;;;;78.00;64.75;;;;;;;;5016792;28;51178;-48
2022/01/22 13:21:07;;;;;;;;;80.25;64.75;;;;;;;;5016887;28;51217;-48
2022/01/22 13:24:05;;;;;;;;;106.25;93.25;;;;;;;;5017779;28;51180;-47
2022/01/22 13:29:54;;;;;;;;;78.00;67.75;;;;;;;;5015834;28;51240;-49
2022/01/22 13:32:53;;;;;;;;;81.25;63.00;;;;;;;;5017938;28;52305;-49
2022/01/22 13:45:21;;;;;;;;;74.25;59.75;;;;;;;;5020092;28;51113;-52
2022/01/22 13:48:05;;;;;;;;;76.00;62.75;;;;;;;;5018699;28;51649;-48
2022/01/22 13:51:02;;;;;;;;;79.75;61.25;;;;;;;;5017551;28;51059;-53
2022/01/22 13:53:47;;;;;;;;;69.25;53.75;;;;;;;;5015449;28;51169;-51
2022/01/22 13:56:52;;;;;;;;;73.25;56.75;;;;;;;;5021289;28;51571;-54
2022/01/22 13:59:45;;;;;;;;;74.25;58.25;;;;;;;;5021578;28;51078;-49
2022/01/22 14:02:51;;;;;;;;;77.00;59.25;;;;;;;;5021978;28;51597;-48
2022/01/22 14:05:48;;;;;;;;;75.75;63.75;;;;;;;;5022204;28;51064;-51
2022/01/22 14:08:42;;;;;;;;;83.50;74.25;;;;;;;;5022447;28;51162;-52
2022/01/22 14:11:42;;;;;;;;;83.00;69.75;;;;;;;;5018706;28;51137;-49
2022/01/22 14:14:30;;;;;;;;;95.75;78.00;;;;;;;;5022067;28;51041;-49
2022/01/22 14:17:20;;;;;;;;;87.75;77.50;;;;;;;;5024232;28;51101;-47
2022/01/22 14:20:11;;;;;;;;;93.25;77.00;;;;;;;;5025576;28;51185;-48
2022/01/22 14:23:24;;;;;;;;;104.25;85.50;;;;;;;;5021544;28;51449;-48
2022/01/22 14:26:34;;;;;;;;;96.75;81.25;;;;;;;;5022136;28;51164;-50
2022/01/22 14:29:38;;;;;;;;;96.25;85.75;;;;;;;;5021579;28;51492;-51
2022/01/22 14:32:27;;;;;;;;;86.00;73.50;;;;;;;;5021706;28;51325;-52
2022/01/22 14:35:49;;;;;;;;;83.25;73.25;;;;;;;;5023690;28;51446;-50
2022/01/22 14:38:45;;;;;;;;;93.25;80.25;;;;;;;;5021900;28;51610;-46
2022/01/22 14:44:40;;;;;;;;;80.50;70.00;;;;;;;;5020477;28;51059;-49
2022/01/22 14:47:28;;;;;;;;;98.75;81.25;;;;;;;;5011635;28;51178;-48
2022/01/22 14:50:13;;;;;;;;;82.50;70.75;;;;;;;;5017054;28;51573;-51
2022/01/22 14:52:59;;;;;;;;;89.00;77.00;;;;;;;;5020530;28;51158;-51
2022/01/22 14:55:50;;;;;;;;;80.00;75.50;;;;;;;;5019246;28;51154;-50
2022/01/22 14:58:36;;;;;;;;;83.25;68.00;;;;;;;;5020081;28;51064;-49
2022/01/22 15:01:22;;;;;;;;;90.00;77.75;;;;;;;;5019408;28;51540;-48
2022/01/22 15:04:07;;;;;;;;;80.00;71.25;;;;;;;;5022022;28;51226;-51
2022/01/22 15:06:56;;;;;;;;;83.00;71.00;;;;;;;;5020522;28;50964;-48
2022/01/22 15:09:49;;;;;;;;;80.00;72.25;;;;;;;;5019034;28;51119;-46
2022/01/22 15:12:34;;;;;;;;;84.75;72.50;;;;;;;;5020888;28;51185;-52
2022/01/22 15:15:23;;;;;;;;;77.75;68.75;;;;;;;;5020384;28;51356;-48
2022/01/22 15:18:12;;;;;;;;;84.50;77.50;;;;;;;;5020108;28;51343;-45
2022/01/22 15:21:00;;;;;;;;;89.75;77.25;;;;;;;;5019434;28;51510;-49
2022/01/22 15:23:55;;;;;;;;;83.00;74.00;;;;;;;;5019256;28;51132;-47
2022/01/22 15:26:40;;;;;;;;;83.50;74.00;;;;;;;;5017246;28;51528;-46
2022/01/22 15:29:28;;;;;;;;;86.00;73.75;;;;;;;;5019844;28;51196;-51
2022/01/22 15:32:35;;;;;;;;;77.50;69.75;;;;;;;;5020137;28;51162;-48
2022/01/22 15:35:21;;;;;;;;;92.50;75.50;;;;;;;;5014915;28;51185;-49
2022/01/22 15:38:28;;;;;;;;;85.25;75.25;;;;;;;;5017136;28;51185;-47
2022/01/22 15:41:16;;;;;;;;;83.50;67.25;;;;;;;;5016301;28;51176;-47
2022/01/22 15:44:14;;;;;;;;;81.75;65.25;;;;;;;;5018114;28;51136;-48
2022/01/22 15:47:10;;;;;;;;;84.25;71.00;;;;;;;;5018286;28;51137;-51
2022/01/22 15:50:05;;;;;;;;;89.25;72.00;;;;;;;;5017137;28;51222;-50
2022/01/22 15:52:57;;;;;;;;;84.00;64.50;;;;;;;;5016779;28;51517;-49
2022/01/22 15:55:52;;;;;;;;;83.25;71.50;;;;;;;;5017812;28;51550;-51
2022/01/22 15:58:38;;;;;;;;;76.25;61.50;;;;;;;;5017951;28;51165;-52
2022/01/22 16:01:22;;;;;;;;;80.75;71.25;;;;;;;;5019065;28;51458;-49
2022/01/22 16:04:07;;;;;;;;;83.25;68.50;;;;;;;;5017473;28;51687;-50
2022/01/22 16:07:21;;;;;;;;;81.50;69.00;;;;;;;;5016272;28;51189;-45
2022/01/22 16:10:07;;;;;;;;;83.00;68.00;;;;;;;;5017078;28;51093;-47
2022/01/22 16:12:54;;;;;;;;;84.50;68.00;;;;;;;;5017339;28;51098;-50
2022/01/22 16:15:40;;;;;;;;;84.75;70.00;;;;;;;;5018000;28;51500;-52
2022/01/22 16:18:59;;;;;;;;;81.75;65.50;;;;;;;;5015876;28;51119;-53
2022/01/22 16:21:44;;;;;;;;;80.75;70.00;;;;;;;;5018297;28;51190;-55
2022/01/22 16:24:34;;;;;;;;;83.25;71.25;;;;;;;;5018212;28;51821;-51
2022/01/22 16:27:22;;;;;;;;;80.00;66.00;;;;;;;;5017912;28;51048;-51
2022/01/22 16:30:12;;;;;;;;;82.00;70.75;;;;;;;;5017113;28;51094;-49
2022/01/22 16:33:08;;;;;;;;;76.00;64.50;;;;;;;;5015724;28;51578;-53
2022/01/22 16:35:53;;;;;;;;;79.50;65.00;;;;;;;;5018770;28;51161;-48
2022/01/22 16:38:46;;;;;;;;;86.75;72.00;;;;;;;;5017428;28;51178;-45
2022/01/22 16:41:32;;;;;;;;;79.25;67.50;;;;;;;;5013518;28;51149;-52
2022/01/22 16:44:44;;;;;;;;;88.50;75.50;;;;;;;;5019977;28;51948;-56
2022/01/22 17:00:07;;;;;;;;;77.00;67.25;;;;;;;;5016858;28;51479;-49
2022/01/22 17:03:09;;;;;;;;;78.75;61.50;;;;;;;;5015766;28;51109;-50
2022/01/22 17:05:54;;;;;;;;;78.00;68.75;;;;;;;;5017064;28;51332;-50
2022/01/22 17:08:39;;;;;;;;;77.75;68.00;;;;;;;;5021414;28;51351;-47
2022/01/22 17:11:40;;;;;;;;;79.25;64.25;;;;;;;;5009324;28;52007;-49
2022/01/22 17:14:31;;;;;;;;;78.50;62.00;;;;;;;;5017032;28;51255;-47
2022/01/22 17:17:35;;;;;;;;;76.25;63.00;;;;;;;;5003707;28;51646;-46
2022/01/22 17:20:33;;;;;;;;;73.00;60.00;;;;;;;;5014910;28;51177;-48
2022/01/22 17:23:29;;;;;;;;;80.25;65.25;;;;;;;;5015885;28;51150;-48
2022/01/22 17:26:16;;;;;;;;;76.00;59.75;;;;;;;;5016047;28;51140;-50
2022/01/22 17:29:28;;;;;;;;;64.75;47.75;;;;;;;;5007986;28;51131;-50
2022/01/22 17:32:18;;;;;;;;;70.75;52.75;;;;;;;;5020428;28;51197;-47
2022/01/22 17:35:05;;;;;;;;;73.75;55.75;;;;;;;;5020328;28;51931;-48
2022/01/22 17:37:50;;;;;;;;;73.50;56.50;;;;;;;;5020836;28;51458;-50
2022/01/22 17:40:41;;;;;;;;;74.50;59.75;;;;;;;;5020517;28;51055;-48
2022/01/22 17:43:30;;;;;;;;;74.75;56.75;;;;;;;;5004196;28;51618;-46
2022/01/22 17:46:15;;;;;;;;;73.75;57.75;;;;;;;;5020740;28;51177;-50
2022/01/22 17:48:59;;;;;;;;;72.00;53.25;;;;;;;;5006465;28;51107;-49
2022/01/22 17:51:43;;;;;;;;;74.00;57.50;;;;;;;;5023246;28;51122;-50
2022/01/22 17:54:31;;;;;;;;;74.25;55.25;;;;;;;;5024255;28;50972;-52
2022/01/22 17:57:18;;;;;;;;;74.25;58.50;;;;;;;;5020839;28;51117;-52
2022/01/22 18:00:10;;;;;;;;;73.25;59.50;;;;;;;;5020591;28;51742;-44
2022/01/22 18:02:56;;;;;;;;;67.50;53.50;;;;;;;;5021984;28;52044;-50
2022/01/22 18:05:45;;;;;;;;;71.50;56.75;;;;;;;;5020138;28;51221;-51
2022/01/22 18:08:34;;;;;;;;;71.00;56.25;;;;;;;;5021897;28;51487;-48
2022/01/22 18:11:19;;;;;;;;;65.75;52.50;;;;;;;;5021581;28;51070;-47
2022/01/22 18:14:06;;;;;;;;;74.50;59.75;;;;;;;;5023570;28;51458;-53
2022/01/22 18:16:50;;;;;;;;;71.75;54.75;;;;;;;;5020052;28;51169;-51
2022/01/22 18:19:35;;;;;;;;;69.50;51.50;;;;;;;;5022878;28;51152;-49
2022/01/22 18:22:19;;;;;;;;;69.50;53.25;;;;;;;;5021711;28;51101;-47
2022/01/22 18:25:04;;;;;;;;;72.25;55.50;;;;;;;;5022855;28;51688;-49
2022/01/22 18:27:50;;;;;;;;;68.00;51.75;;;;;;;;5020776;28;51124;-50
2022/01/22 18:30:38;;;;;;;;;71.00;51.00;;;;;;;;5021901;28;51085;-46